sensor_id;sensor_type;location;lat;lon;timestamp;temperature;humidity
6841;DHT22;3458;53.678;14.080;2023-07-31T00:01:25;18.80;99.90
6841;DHT22;3458;53.678;14.080;2023-07-31T00:03:50;18.70;99.90
6841;DHT22;3458;53.678;14.080;2023-07-31T00:06:16;18.70;99.90
6841;DHT22;3458;53.678;14.080;2023-07-31T00:08:41;18.70;99.90
6841;DHT22;3458;53.678;14.080;2023-07-31T00:11:07;18.70;99.90
6841;DHT22;3458;53.678;14.080;2023-07-31T00:13:32;18.80;99.90
6841;DHT22;3458;53.678;14.080;2023-07-31T00:15:59;18.70;99.90
6841;DHT22;3458;53.678;14.080;2023-07-31T00:18:24;18.80;99.90
6841;DHT22;3458;53.678;14.080;2023-07-31T00:20:50;18.70;99.90
6841;DHT22;3458;53.678;14.080;2023-07-31T00:23:15;18.60;99.90
6841;DHT22;3458;53.678;14.080;2023-07-31T00:25:41;18.70;99.90
6841;DHT22;3458;53.678;14.080;2023-07-31T00:28:07;18.70;99.90
6841;DHT22;3458;53.678;14.080;2023-07-31T00:30:32;18.70;99.90
6841;DHT22;3458;53.678;14.080;2023-07-31T00:32:58;18.60;99.90
6841;DHT22;3458;53.678;14.080;2023-07-31T00:35:23;18.50;99.90
6841;DHT22;3458;53.678;14.080;2023-07-31T00:37:49;18.30;99.90
6841;DHT22;3458;53.678;14.080;2023-07-31T00:40:14;18.40;99.90
6841;DHT22;3458;53.678;14.080;2023-07-31T00:42:40;18.30;99.90
6841;DHT22;3458;53.678;14.080;2023-07-31T00:45:05;18.30;99.90
6841;DHT22;3458;53.678;14.080;2023-07-31T00:47:31;18.30;99.90
6841;DHT22;3458;53.678;14.080;2023-07-31T00:49:57;18.30;99.90
6841;DHT22;3458;53.678;14.080;2023-07-31T00:52:23;18.20;99.90
6841;DHT22;3458;53.678;14.080;2023-07-31T00:54:49;18.20;99.90
6841;DHT22;3458;53.678;14.080;2023-07-31T00:57:15;18.20;99.90
6841;DHT22;3458;53.678;14.080;2023-07-31T00:59:40;18.20;99.90
6841;DHT22;3458;53.678;14.080;2023-07-31T01:02:06;18.20;99.90
6841;DHT22;3458;53.678;14.080;2023-07-31T01:04:32;18.30;99.90
6841;DHT22;3458;53.678;14.080;2023-07-31T01:07:20;18.30;99.90
6841;DHT22;3458;53.678;14.080;2023-07-31T01:12:27;18.30;99.90
6841;DHT22;3458;53.678;14.080;2023-07-31T01:15:06;18.30;99.90
6841;DHT22;3458;53.678;14.080;2023-07-31T01:17:39;18.30;99.90
6841;DHT22;3458;53.678;14.080;2023-07-31T01:20:15;18.30;99.90
6841;DHT22;3458;53.678;14.080;2023-07-31T01:31:07;18.20;99.90
6841;DHT22;3458;53.678;14.080;2023-07-31T01:33:36;18.20;99.90
6841;DHT22;3458;53.678;14.080;2023-07-31T01:36:02;18.20;99.90
6841;DHT22;3458;53.678;14.080;2023-07-31T01:38:28;18.20;99.90
6841;DHT22;3458;53.678;14.080;2023-07-31T01:40:54;18.30;99.90
6841;DHT22;3458;53.678;14.080;2023-07-31T01:43:20;18.30;99.90
6841;DHT22;3458;53.678;14.080;2023-07-31T01:45:45;18.40;99.90
6841;DHT22;3458;53.678;14.080;2023-07-31T01:48:11;18.40;99.90
6841;DHT22;3458;53.678;14.080;2023-07-31T01:50:36;18.50;99.90
6841;DHT22;3458;53.678;14.080;2023-07-31T01:53:02;18.50;99.90
6841;DHT22;3458;53.678;14.080;2023-07-31T01:55:27;18.50;99.90
6841;DHT22;3458;53.678;14.080;2023-07-31T01:57:53;18.50;99.90
6841;DHT22;3458;53.678;14.080;2023-07-31T02:00:18;18.50;99.90
6841;DHT22;3458;53.678;14.080;2023-07-31T02:02:44;18.50;99.90
6841;DHT22;3458;53.678;14.080;2023-07-31T02:05:09;18.50;99.90
6841;DHT22;3458;53.678;14.080;2023-07-31T02:07:35;18.50;99.90
6841;DHT22;3458;53.678;14.080;2023-07-31T02:10:00;18.50;99.90
6841;DHT22;3458;53.678;14.080;2023-07-31T02:12:26;18.50;99.90
6841;DHT22;3458;53.678;14.080;2023-07-31T02:14:51;18.50;99.90
6841;DHT22;3458;53.678;14.080;2023-07-31T02:17:17;18.50;99.90
6841;DHT22;3458;53.678;14.080;2023-07-31T02:19:42;18.40;99.90
6841;DHT22;3458;53.678;14.080;2023-07-31T02:22:08;18.40;99.90
6841;DHT22;3458;53.678;14.080;2023-07-31T02:24:33;18.30;99.90
6841;DHT22;3458;53.678;14.080;2023-07-31T02:26:59;18.40;99.90
6841;DHT22;3458;53.678;14.080;2023-07-31T02:29:24;18.30;99.90
6841;DHT22;3458;53.678;14.080;2023-07-31T02:31:50;18.30;99.90
6841;DHT22;3458;53.678;14.080;2023-07-31T02:34:15;18.30;99.90
6841;DHT22;3458;53.678;14.080;2023-07-31T02:36:41;18.30;99.90
6841;DHT22;3458;53.678;14.080;2023-07-31T02:39:06;18.20;99.90
6841;DHT22;3458;53.678;14.080;2023-07-31T02:41:32;18.20;99.90
6841;DHT22;3458;53.678;14.080;2023-07-31T02:43:57;18.10;99.90
6841;DHT22;3458;53.678;14.080;2023-07-31T02:46:23;18.10;99.90
6841;DHT22;3458;53.678;14.080;2023-07-31T02:48:50;18.00;99.90
6841;DHT22;3458;53.678;14.080;2023-07-31T02:51:16;18.00;99.90
6841;DHT22;3458;53.678;14.080;2023-07-31T02:53:41;18.00;99.90
6841;DHT22;3458;53.678;14.080;2023-07-31T02:56:07;18.00;99.90
6841;DHT22;3458;53.678;14.080;2023-07-31T02:58:32;18.00;99.90
6841;DHT22;3458;53.678;14.080;2023-07-31T03:00:58;18.00;99.90
6841;DHT22;3458;53.678;14.080;2023-07-31T03:03:24;18.00;99.90
6841;DHT22;3458;53.678;14.080;2023-07-31T03:05:49;17.90;99.90
6841;DHT22;3458;53.678;14.080;2023-07-31T03:08:15;17.90;99.90
6841;DHT22;3458;53.678;14.080;2023-07-31T03:10:40;17.90;99.90
6841;DHT22;3458;53.678;14.080;2023-07-31T03:13:06;17.90;99.90
6841;DHT22;3458;53.678;14.080;2023-07-31T03:15:32;17.80;99.90
6841;DHT22;3458;53.678;14.080;2023-07-31T03:17:57;17.70;99.90
6841;DHT22;3458;53.678;14.080;2023-07-31T03:20:23;17.80;99.90
6841;DHT22;3458;53.678;14.080;2023-07-31T03:22:48;17.80;99.90
6841;DHT22;3458;53.678;14.080;2023-07-31T03:25:14;17.80;99.90
6841;DHT22;3458;53.678;14.080;2023-07-31T03:27:39;17.80;99.90
6841;DHT22;3458;53.678;14.080;2023-07-31T03:30:06;17.70;99.90
6841;DHT22;3458;53.678;14.080;2023-07-31T03:32:31;17.60;99.90
6841;DHT22;3458;53.678;14.080;2023-07-31T03:34:57;17.60;99.90
6841;DHT22;3458;53.678;14.080;2023-07-31T03:37:23;17.60;99.90
6841;DHT22;3458;53.678;14.080;2023-07-31T03:39:48;17.60;99.90
6841;DHT22;3458;53.678;14.080;2023-07-31T03:42:14;17.60;99.90
6841;DHT22;3458;53.678;14.080;2023-07-31T03:44:40;17.60;99.90
6841;DHT22;3458;53.678;14.080;2023-07-31T03:47:05;17.60;99.90
6841;DHT22;3458;53.678;14.080;2023-07-31T03:49:31;17.60;99.90
6841;DHT22;3458;53.678;14.080;2023-07-31T03:51:56;17.70;99.90
6841;DHT22;3458;53.678;14.080;2023-07-31T03:54:22;17.70;99.90
6841;DHT22;3458;53.678;14.080;2023-07-31T03:56:47;17.70;99.90
6841;DHT22;3458;53.678;14.080;2023-07-31T03:59:13;17.70;99.90
6841;DHT22;3458;53.678;14.080;2023-07-31T04:01:38;17.70;99.90
6841;DHT22;3458;53.678;14.080;2023-07-31T04:04:04;17.70;99.90
6841;DHT22;3458;53.678;14.080;2023-07-31T04:06:30;17.70;99.90
6841;DHT22;3458;53.678;14.080;2023-07-31T04:08:55;17.70;99.90
6841;DHT22;3458;53.678;14.080;2023-07-31T04:11:21;17.60;99.90
6841;DHT22;3458;53.678;14.080;2023-07-31T04:13:47;17.60;99.90
6841;DHT22;3458;53.678;14.080;2023-07-31T04:16:12;17.60;99.90
6841;DHT22;3458;53.678;14.080;2023-07-31T04:18:38;17.60;99.90
6841;DHT22;3458;53.678;14.080;2023-07-31T04:21:03;17.60;99.90
6841;DHT22;3458;53.678;14.080;2023-07-31T04:23:29;17.70;99.90
6841;DHT22;3458;53.678;14.080;2023-07-31T04:25:54;17.70;99.90
6841;DHT22;3458;53.678;14.080;2023-07-31T04:28:20;17.70;99.90
6841;DHT22;3458;53.678;14.080;2023-07-31T04:30:45;17.70;99.90
6841;DHT22;3458;53.678;14.080;2023-07-31T04:33:11;17.70;99.90
6841;DHT22;3458;53.678;14.080;2023-07-31T04:35:36;17.70;99.90
6841;DHT22;3458;53.678;14.080;2023-07-31T04:38:02;17.70;99.90
6841;DHT22;3458;53.678;14.080;2023-07-31T04:40:27;17.60;99.90
6841;DHT22;3458;53.678;14.080;2023-07-31T04:42:53;17.60;99.90
6841;DHT22;3458;53.678;14.080;2023-07-31T04:45:18;17.70;99.90
6841;DHT22;3458;53.678;14.080;2023-07-31T04:47:44;17.70;99.90
6841;DHT22;3458;53.678;14.080;2023-07-31T04:50:09;17.70;99.90
6841;DHT22;3458;53.678;14.080;2023-07-31T04:52:35;17.70;99.90
6841;DHT22;3458;53.678;14.080;2023-07-31T04:55:01;17.80;99.90
6841;DHT22;3458;53.678;14.080;2023-07-31T04:57:26;17.80;99.90
6841;DHT22;3458;53.678;14.080;2023-07-31T04:59:52;17.90;99.90
6841;DHT22;3458;53.678;14.080;2023-07-31T05:02:17;17.90;99.90
6841;DHT22;3458;53.678;14.080;2023-07-31T05:04:43;17.90;99.90
6841;DHT22;3458;53.678;14.080;2023-07-31T05:07:08;18.00;99.90
6841;DHT22;3458;53.678;14.080;2023-07-31T05:09:34;18.00;99.90
6841;DHT22;3458;53.678;14.080;2023-07-31T05:11:59;18.00;99.90
6841;DHT22;3458;53.678;14.080;2023-07-31T05:14:25;18.00;99.90
6841;DHT22;3458;53.678;14.080;2023-07-31T05:16:51;18.00;99.90
6841;DHT22;3458;53.678;14.080;2023-07-31T05:19:17;18.00;99.90
6841;DHT22;3458;53.678;14.080;2023-07-31T05:21:42;18.10;99.90
6841;DHT22;3458;53.678;14.080;2023-07-31T05:24:08;18.10;99.90
6841;DHT22;3458;53.678;14.080;2023-07-31T05:26:33;18.10;99.90
6841;DHT22;3458;53.678;14.080;2023-07-31T05:28:59;18.10;99.90
6841;DHT22;3458;53.678;14.080;2023-07-31T05:31:24;18.10;99.90
6841;DHT22;3458;53.678;14.080;2023-07-31T05:33:50;18.10;99.90
6841;DHT22;3458;53.678;14.080;2023-07-31T05:36:16;18.20;99.90
6841;DHT22;3458;53.678;14.080;2023-07-31T05:38:42;18.10;99.90
6841;DHT22;3458;53.678;14.080;2023-07-31T05:41:09;18.10;99.90
6841;DHT22;3458;53.678;14.080;2023-07-31T05:43:35;18.10;99.90
6841;DHT22;3458;53.678;14.080;2023-07-31T05:46:00;18.10;99.90
6841;DHT22;3458;53.678;14.080;2023-07-31T05:48:26;18.10;99.90
6841;DHT22;3458;53.678;14.080;2023-07-31T05:50:52;18.10;99.90
6841;DHT22;3458;53.678;14.080;2023-07-31T05:53:17;18.10;99.90
6841;DHT22;3458;53.678;14.080;2023-07-31T05:55:43;18.00;99.90
6841;DHT22;3458;53.678;14.080;2023-07-31T05:58:08;18.10;99.90
6841;DHT22;3458;53.678;14.080;2023-07-31T06:00:34;18.10;99.90
6841;DHT22;3458;53.678;14.080;2023-07-31T06:02:59;18.20;99.90
6841;DHT22;3458;53.678;14.080;2023-07-31T06:05:25;18.20;99.90
6841;DHT22;3458;53.678;14.080;2023-07-31T06:07:51;18.20;99.90
6841;DHT22;3458;53.678;14.080;2023-07-31T06:10:17;18.10;99.90
6841;DHT22;3458;53.678;14.080;2023-07-31T06:12:42;18.10;99.90
6841;DHT22;3458;53.678;14.080;2023-07-31T06:15:08;18.10;99.90
6841;DHT22;3458;53.678;14.080;2023-07-31T06:17:33;18.10;99.90
6841;DHT22;3458;53.678;14.080;2023-07-31T06:19:59;18.10;99.90
6841;DHT22;3458;53.678;14.080;2023-07-31T06:22:24;18.20;99.90
6841;DHT22;3458;53.678;14.080;2023-07-31T06:24:50;18.20;99.90
6841;DHT22;3458;53.678;14.080;2023-07-31T06:27:15;18.30;99.90
6841;DHT22;3458;53.678;14.080;2023-07-31T06:29:42;18.30;99.90
6841;DHT22;3458;53.678;14.080;2023-07-31T06:32:07;18.40;99.90
6841;DHT22;3458;53.678;14.080;2023-07-31T06:34:33;18.50;99.90
6841;DHT22;3458;53.678;14.080;2023-07-31T06:36:59;18.60;99.90
6841;DHT22;3458;53.678;14.080;2023-07-31T06:39:24;18.50;99.90
6841;DHT22;3458;53.678;14.080;2023-07-31T06:41:49;18.50;99.90
6841;DHT22;3458;53.678;14.080;2023-07-31T06:44:15;18.60;99.90
6841;DHT22;3458;53.678;14.080;2023-07-31T06:46:42;18.70;99.90
6841;DHT22;3458;53.678;14.080;2023-07-31T06:49:08;18.60;99.90
6841;DHT22;3458;53.678;14.080;2023-07-31T06:51:33;18.70;99.90
6841;DHT22;3458;53.678;14.080;2023-07-31T06:53:59;18.70;99.90
6841;DHT22;3458;53.678;14.080;2023-07-31T06:56:24;18.70;99.90
6841;DHT22;3458;53.678;14.080;2023-07-31T06:58:51;18.80;99.90
6841;DHT22;3458;53.678;14.080;2023-07-31T07:01:16;18.80;99.90
6841;DHT22;3458;53.678;14.080;2023-07-31T07:03:42;18.80;99.90
6841;DHT22;3458;53.678;14.080;2023-07-31T07:06:07;18.80;99.90
6841;DHT22;3458;53.678;14.080;2023-07-31T07:08:36;18.90;99.90
6841;DHT22;3458;53.678;14.080;2023-07-31T07:11:01;19.00;99.90
6841;DHT22;3458;53.678;14.080;2023-07-31T07:13:27;19.00;99.90
6841;DHT22;3458;53.678;14.080;2023-07-31T07:15:52;19.10;99.90
6841;DHT22;3458;53.678;14.080;2023-07-31T07:18:18;19.00;99.90
6841;DHT22;3458;53.678;14.080;2023-07-31T07:20:51;19.10;99.90
6841;DHT22;3458;53.678;14.080;2023-07-31T07:23:16;19.10;99.90
6841;DHT22;3458;53.678;14.080;2023-07-31T07:25:43;19.10;99.90
6841;DHT22;3458;53.678;14.080;2023-07-31T07:28:09;19.10;99.90
6841;DHT22;3458;53.678;14.080;2023-07-31T07:30:34;19.20;99.90
6841;DHT22;3458;53.678;14.080;2023-07-31T07:33:00;19.20;99.90
6841;DHT22;3458;53.678;14.080;2023-07-31T07:35:25;19.20;99.90
6841;DHT22;3458;53.678;14.080;2023-07-31T07:37:51;19.30;99.90
6841;DHT22;3458;53.678;14.080;2023-07-31T07:40:16;19.30;99.90
6841;DHT22;3458;53.678;14.080;2023-07-31T07:42:42;19.30;99.90
6841;DHT22;3458;53.678;14.080;2023-07-31T07:45:08;19.40;99.90
6841;DHT22;3458;53.678;14.080;2023-07-31T07:47:34;19.40;99.90
6841;DHT22;3458;53.678;14.080;2023-07-31T07:49:59;19.40;99.90
6841;DHT22;3458;53.678;14.080;2023-07-31T07:52:25;19.30;99.90
6841;DHT22;3458;53.678;14.080;2023-07-31T07:54:50;19.40;99.90
6841;DHT22;3458;53.678;14.080;2023-07-31T07:57:16;19.30;99.90
6841;DHT22;3458;53.678;14.080;2023-07-31T07:59:41;19.30;99.90
6841;DHT22;3458;53.678;14.080;2023-07-31T08:02:07;19.30;99.90
6841;DHT22;3458;53.678;14.080;2023-07-31T08:04:33;19.30;99.90
6841;DHT22;3458;53.678;14.080;2023-07-31T08:06:58;19.30;99.90
6841;DHT22;3458;53.678;14.080;2023-07-31T08:09:23;19.30;99.90
6841;DHT22;3458;53.678;14.080;2023-07-31T08:11:49;19.40;99.90
6841;DHT22;3458;53.678;14.080;2023-07-31T08:14:14;19.50;99.90
6841;DHT22;3458;53.678;14.080;2023-07-31T08:16:40;19.60;99.90
6841;DHT22;3458;53.678;14.080;2023-07-31T08:19:05;19.50;99.90
6841;DHT22;3458;53.678;14.080;2023-07-31T08:21:31;19.60;99.90
6841;DHT22;3458;53.678;14.080;2023-07-31T08:23:57;19.60;99.90
6841;DHT22;3458;53.678;14.080;2023-07-31T08:26:22;19.70;99.90
6841;DHT22;3458;53.678;14.080;2023-07-31T08:28:48;19.70;99.90
6841;DHT22;3458;53.678;14.080;2023-07-31T08:31:13;19.70;99.90
6841;DHT22;3458;53.678;14.080;2023-07-31T08:33:39;19.80;99.90
6841;DHT22;3458;53.678;14.080;2023-07-31T08:36:08;19.90;99.90
6841;DHT22;3458;53.678;14.080;2023-07-31T08:38:33;20.00;99.90
6841;DHT22;3458;53.678;14.080;2023-07-31T08:40:59;20.10;99.90
6841;DHT22;3458;53.678;14.080;2023-07-31T08:43:28;20.10;99.90
6841;DHT22;3458;53.678;14.080;2023-07-31T08:45:53;20.10;99.90
6841;DHT22;3458;53.678;14.080;2023-07-31T08:48:21;20.10;99.90
6841;DHT22;3458;53.678;14.080;2023-07-31T08:50:47;20.20;99.90
6841;DHT22;3458;53.678;14.080;2023-07-31T08:53:12;20.20;99.90
6841;DHT22;3458;53.678;14.080;2023-07-31T08:55:38;20.20;99.90
6841;DHT22;3458;53.678;14.080;2023-07-31T08:58:04;20.20;99.90
6841;DHT22;3458;53.678;14.080;2023-07-31T09:00:32;20.30;99.90
6841;DHT22;3458;53.678;14.080;2023-07-31T09:03:03;20.30;99.90
6841;DHT22;3458;53.678;14.080;2023-07-31T09:05:32;20.30;99.90
6841;DHT22;3458;53.678;14.080;2023-07-31T09:08:00;20.40;99.90
6841;DHT22;3458;53.678;14.080;2023-07-31T09:10:27;20.50;99.90
6841;DHT22;3458;53.678;14.080;2023-07-31T09:12:52;20.50;99.90
6841;DHT22;3458;53.678;14.080;2023-07-31T09:15:18;20.50;99.90
6841;DHT22;3458;53.678;14.080;2023-07-31T09:17:44;20.60;99.90
6841;DHT22;3458;53.678;14.080;2023-07-31T09:20:21;20.70;99.90
6841;DHT22;3458;53.678;14.080;2023-07-31T09:22:48;20.70;99.90
6841;DHT22;3458;53.678;14.080;2023-07-31T09:25:20;20.80;99.90
6841;DHT22;3458;53.678;14.080;2023-07-31T09:28:09;20.80;99.90
6841;DHT22;3458;53.678;14.080;2023-07-31T09:30:50;21.00;99.90
6841;DHT22;3458;53.678;14.080;2023-07-31T09:33:17;21.10;99.90
6841;DHT22;3458;53.678;14.080;2023-07-31T09:35:43;21.20;99.90
6841;DHT22;3458;53.678;14.080;2023-07-31T09:38:10;21.10;99.90
6841;DHT22;3458;53.678;14.080;2023-07-31T09:40:39;21.00;99.90
6841;DHT22;3458;53.678;14.080;2023-07-31T09:43:09;21.00;99.90
6841;DHT22;3458;53.678;14.080;2023-07-31T09:45:38;20.90;99.90
6841;DHT22;3458;53.678;14.080;2023-07-31T09:48:07;20.80;99.90
6841;DHT22;3458;53.678;14.080;2023-07-31T09:50:37;20.80;99.90
6841;DHT22;3458;53.678;14.080;2023-07-31T09:53:03;20.90;99.90
6841;DHT22;3458;53.678;14.080;2023-07-31T09:55:29;20.90;99.90
6841;DHT22;3458;53.678;14.080;2023-07-31T09:57:57;21.10;99.90
6841;DHT22;3458;53.678;14.080;2023-07-31T10:00:23;21.10;99.90
6841;DHT22;3458;53.678;14.080;2023-07-31T10:02:51;21.10;99.90
6841;DHT22;3458;53.678;14.080;2023-07-31T10:05:17;21.30;99.90
6841;DHT22;3458;53.678;14.080;2023-07-31T10:07:49;21.30;99.90
6841;DHT22;3458;53.678;14.080;2023-07-31T10:10:16;21.30;99.90
6841;DHT22;3458;53.678;14.080;2023-07-31T10:12:42;21.20;99.90
6841;DHT22;3458;53.678;14.080;2023-07-31T10:15:09;21.20;99.90
6841;DHT22;3458;53.678;14.080;2023-07-31T10:17:36;21.30;99.90
6841;DHT22;3458;53.678;14.080;2023-07-31T10:20:02;21.30;99.90
6841;DHT22;3458;53.678;14.080;2023-07-31T10:22:30;21.30;99.90
6841;DHT22;3458;53.678;14.080;2023-07-31T10:24:58;21.30;99.90
6841;DHT22;3458;53.678;14.080;2023-07-31T10:27:24;21.20;99.90
6841;DHT22;3458;53.678;14.080;2023-07-31T10:29:51;21.40;99.90
6841;DHT22;3458;53.678;14.080;2023-07-31T10:32:17;21.50;99.90
6841;DHT22;3458;53.678;14.080;2023-07-31T10:34:44;21.50;99.90
6841;DHT22;3458;53.678;14.080;2023-07-31T10:42:46;21.60;99.90
6841;DHT22;3458;53.678;14.080;2023-07-31T10:45:13;21.60;99.90
6841;DHT22;3458;53.678;14.080;2023-07-31T10:47:43;21.50;99.90
6841;DHT22;3458;53.678;14.080;2023-07-31T10:50:18;21.50;99.90
6841;DHT22;3458;53.678;14.080;2023-07-31T10:52:48;21.40;99.90
6841;DHT22;3458;53.678;14.080;2023-07-31T10:55:25;21.40;99.90
6841;DHT22;3458;53.678;14.080;2023-07-31T10:57:51;21.40;99.90
6841;DHT22;3458;53.678;14.080;2023-07-31T11:00:27;21.30;99.90
6841;DHT22;3458;53.678;14.080;2023-07-31T11:06:02;21.40;99.90
6841;DHT22;3458;53.678;14.080;2023-07-31T11:08:29;21.40;99.90
6841;DHT22;3458;53.678;14.080;2023-07-31T11:13:30;21.50;99.90
6841;DHT22;3458;53.678;14.080;2023-07-31T11:15:55;21.50;99.90
6841;DHT22;3458;53.678;14.080;2023-07-31T11:18:21;21.50;99.90
6841;DHT22;3458;53.678;14.080;2023-07-31T11:20:47;21.40;99.90
6841;DHT22;3458;53.678;14.080;2023-07-31T11:23:12;21.30;99.90
6841;DHT22;3458;53.678;14.080;2023-07-31T11:25:39;21.20;99.90
6841;DHT22;3458;53.678;14.080;2023-07-31T11:28:12;21.10;99.90
6841;DHT22;3458;53.678;14.080;2023-07-31T11:30:39;21.00;99.90
6841;DHT22;3458;53.678;14.080;2023-07-31T11:33:06;21.00;99.90
6841;DHT22;3458;53.678;14.080;2023-07-31T11:35:33;21.00;99.90
6841;DHT22;3458;53.678;14.080;2023-07-31T11:37:59;21.10;99.90
6841;DHT22;3458;53.678;14.080;2023-07-31T11:40:25;21.10;99.90
6841;DHT22;3458;53.678;14.080;2023-07-31T11:43:04;21.00;99.90
6841;DHT22;3458;53.678;14.080;2023-07-31T11:45:30;21.10;99.90
6841;DHT22;3458;53.678;14.080;2023-07-31T11:47:56;21.10;99.90
6841;DHT22;3458;53.678;14.080;2023-07-31T11:50:23;21.10;99.90
6841;DHT22;3458;53.678;14.080;2023-07-31T11:52:55;21.10;99.90
6841;DHT22;3458;53.678;14.080;2023-07-31T11:55:22;21.20;99.90
6841;DHT22;3458;53.678;14.080;2023-07-31T11:57:49;21.20;99.90
6841;DHT22;3458;53.678;14.080;2023-07-31T12:00:15;21.20;99.90
6841;DHT22;3458;53.678;14.080;2023-07-31T12:02:42;21.20;99.90
6841;DHT22;3458;53.678;14.080;2023-07-31T12:05:14;21.10;99.90
6841;DHT22;3458;53.678;14.080;2023-07-31T12:10:29;20.90;99.90
6841;DHT22;3458;53.678;14.080;2023-07-31T12:13:00;20.80;99.90
6841;DHT22;3458;53.678;14.080;2023-07-31T12:15:45;20.80;99.90
6841;DHT22;3458;53.678;14.080;2023-07-31T12:18:17;20.80;99.90
6841;DHT22;3458;53.678;14.080;2023-07-31T12:20:46;20.80;99.90
6841;DHT22;3458;53.678;14.080;2023-07-31T12:23:23;20.70;99.90
6841;DHT22;3458;53.678;14.080;2023-07-31T12:26:03;20.70;99.90
6841;DHT22;3458;53.678;14.080;2023-07-31T12:28:28;20.60;99.90
6841;DHT22;3458;53.678;14.080;2023-07-31T12:30:58;20.50;99.90
6841;DHT22;3458;53.678;14.080;2023-07-31T12:33:31;20.40;99.90
6841;DHT22;3458;53.678;14.080;2023-07-31T12:35:57;20.30;99.90
6841;DHT22;3458;53.678;14.080;2023-07-31T12:38:22;20.30;99.90
6841;DHT22;3458;53.678;14.080;2023-07-31T12:40:48;20.40;99.90
6841;DHT22;3458;53.678;14.080;2023-07-31T12:43:13;20.50;99.90
6841;DHT22;3458;53.678;14.080;2023-07-31T12:45:39;20.60;99.90
6841;DHT22;3458;53.678;14.080;2023-07-31T12:48:04;20.60;99.90
6841;DHT22;3458;53.678;14.080;2023-07-31T12:50:30;20.60;99.90
6841;DHT22;3458;53.678;14.080;2023-07-31T12:52:56;20.60;99.90
6841;DHT22;3458;53.678;14.080;2023-07-31T12:55:22;20.60;99.90
6841;DHT22;3458;53.678;14.080;2023-07-31T12:57:48;20.50;99.90
6841;DHT22;3458;53.678;14.080;2023-07-31T13:00:14;20.40;99.90
6841;DHT22;3458;53.678;14.080;2023-07-31T13:02:40;20.60;99.90
6841;DHT22;3458;53.678;14.080;2023-07-31T13:05:06;20.90;99.90
6841;DHT22;3458;53.678;14.080;2023-07-31T13:07:31;20.90;99.90
6841;DHT22;3458;53.678;14.080;2023-07-31T13:09:57;20.70;99.90
6841;DHT22;3458;53.678;14.080;2023-07-31T13:12:22;20.50;99.90
6841;DHT22;3458;53.678;14.080;2023-07-31T13:14:48;20.40;99.90
6841;DHT22;3458;53.678;14.080;2023-07-31T13:17:13;20.30;99.90
6841;DHT22;3458;53.678;14.080;2023-07-31T13:19:39;20.20;99.90
6841;DHT22;3458;53.678;14.080;2023-07-31T13:22:04;20.10;99.90
6841;DHT22;3458;53.678;14.080;2023-07-31T13:24:30;20.20;99.90
6841;DHT22;3458;53.678;14.080;2023-07-31T13:26:56;20.60;99.90
6841;DHT22;3458;53.678;14.080;2023-07-31T13:29:22;21.00;99.90
6841;DHT22;3458;53.678;14.080;2023-07-31T13:31:48;21.40;99.90
6841;DHT22;3458;53.678;14.080;2023-07-31T13:34:13;21.40;99.90
6841;DHT22;3458;53.678;14.080;2023-07-31T13:36:39;21.30;99.90
6841;DHT22;3458;53.678;14.080;2023-07-31T13:39:04;21.10;99.90
6841;DHT22;3458;53.678;14.080;2023-07-31T13:41:30;21.00;99.90
6841;DHT22;3458;53.678;14.080;2023-07-31T13:43:55;21.00;99.90
6841;DHT22;3458;53.678;14.080;2023-07-31T13:46:21;20.90;99.90
6841;DHT22;3458;53.678;14.080;2023-07-31T13:48:46;20.90;99.90
6841;DHT22;3458;53.678;14.080;2023-07-31T13:51:12;20.80;99.90
6841;DHT22;3458;53.678;14.080;2023-07-31T13:53:37;20.80;99.90
6841;DHT22;3458;53.678;14.080;2023-07-31T13:56:03;21.00;99.90
6841;DHT22;3458;53.678;14.080;2023-07-31T13:58:28;21.40;99.90
6841;DHT22;3458;53.678;14.080;2023-07-31T14:00:54;22.10;99.90
6841;DHT22;3458;53.678;14.080;2023-07-31T14:03:19;22.20;99.90
6841;DHT22;3458;53.678;14.080;2023-07-31T14:05:45;22.20;99.90
6841;DHT22;3458;53.678;14.080;2023-07-31T14:08:10;22.00;99.90
6841;DHT22;3458;53.678;14.080;2023-07-31T14:10:36;22.20;99.90
6841;DHT22;3458;53.678;14.080;2023-07-31T14:13:01;22.50;99.90
6841;DHT22;3458;53.678;14.080;2023-07-31T14:15:27;22.40;99.90
6841;DHT22;3458;53.678;14.080;2023-07-31T14:17:52;22.30;99.90
6841;DHT22;3458;53.678;14.080;2023-07-31T14:20:18;22.20;99.90
6841;DHT22;3458;53.678;14.080;2023-07-31T14:22:44;22.00;99.90
6841;DHT22;3458;53.678;14.080;2023-07-31T14:25:09;21.90;99.90
6841;DHT22;3458;53.678;14.080;2023-07-31T14:27:36;22.00;99.90
6841;DHT22;3458;53.678;14.080;2023-07-31T14:30:02;22.20;99.90
6841;DHT22;3458;53.678;14.080;2023-07-31T14:32:27;22.60;99.90
6841;DHT22;3458;53.678;14.080;2023-07-31T14:34:53;22.60;99.90
6841;DHT22;3458;53.678;14.080;2023-07-31T14:37:19;22.50;99.90
6841;DHT22;3458;53.678;14.080;2023-07-31T14:39:45;22.30;99.90
6841;DHT22;3458;53.678;14.080;2023-07-31T14:42:10;22.10;99.90
6841;DHT22;3458;53.678;14.080;2023-07-31T14:44:36;21.80;99.90
6841;DHT22;3458;53.678;14.080;2023-07-31T14:47:01;21.60;99.90
6841;DHT22;3458;53.678;14.080;2023-07-31T14:49:27;21.50;99.90
6841;DHT22;3458;53.678;14.080;2023-07-31T14:51:54;21.30;99.90
6841;DHT22;3458;53.678;14.080;2023-07-31T14:54:19;21.20;99.90
6841;DHT22;3458;53.678;14.080;2023-07-31T14:56:45;21.10;99.90
6841;DHT22;3458;53.678;14.080;2023-07-31T14:59:10;21.10;99.90
6841;DHT22;3458;53.678;14.080;2023-07-31T15:01:36;20.90;99.90
6841;DHT22;3458;53.678;14.080;2023-07-31T15:04:02;20.80;99.90
6841;DHT22;3458;53.678;14.080;2023-07-31T15:06:28;20.60;99.90
6841;DHT22;3458;53.678;14.080;2023-07-31T15:08:53;20.50;99.90
6841;DHT22;3458;53.678;14.080;2023-07-31T15:11:19;20.50;99.90
6841;DHT22;3458;53.678;14.080;2023-07-31T15:13:44;20.40;99.90
6841;DHT22;3458;53.678;14.080;2023-07-31T15:16:09;20.30;99.90
6841;DHT22;3458;53.678;14.080;2023-07-31T15:18:35;20.20;99.90
6841;DHT22;3458;53.678;14.080;2023-07-31T15:21:00;20.30;99.90
6841;DHT22;3458;53.678;14.080;2023-07-31T15:23:26;20.30;99.90
6841;DHT22;3458;53.678;14.080;2023-07-31T15:25:52;20.30;99.90
6841;DHT22;3458;53.678;14.080;2023-07-31T15:28:18;20.30;99.90
6841;DHT22;3458;53.678;14.080;2023-07-31T15:30:44;20.30;99.90
6841;DHT22;3458;53.678;14.080;2023-07-31T15:33:09;20.30;99.90
6841;DHT22;3458;53.678;14.080;2023-07-31T15:35:35;20.30;99.90
6841;DHT22;3458;53.678;14.080;2023-07-31T15:38:00;20.30;99.90
6841;DHT22;3458;53.678;14.080;2023-07-31T15:40:26;20.30;99.90
6841;DHT22;3458;53.678;14.080;2023-07-31T15:42:51;20.30;99.90
6841;DHT22;3458;53.678;14.080;2023-07-31T15:45:17;20.40;99.90
6841;DHT22;3458;53.678;14.080;2023-07-31T15:47:42;20.50;99.90
6841;DHT22;3458;53.678;14.080;2023-07-31T15:50:08;20.50;99.90
6841;DHT22;3458;53.678;14.080;2023-07-31T15:52:34;20.60;99.90
6841;DHT22;3458;53.678;14.080;2023-07-31T15:54:59;20.60;99.90
6841;DHT22;3458;53.678;14.080;2023-07-31T15:57:25;20.60;99.90
6841;DHT22;3458;53.678;14.080;2023-07-31T15:59:50;20.60;99.90
6841;DHT22;3458;53.678;14.080;2023-07-31T16:02:16;20.70;99.90
6841;DHT22;3458;53.678;14.080;2023-07-31T16:04:41;20.60;99.90